Language selection

Weather shortcuts

Atlantic - Newfoundland: Past 24 Hour Conditions

 

West Chedabucto Bay - 44489

05:00 PM ADT 25 July 2024Buoy position: 45.49N 61.14W
Disclaimer

This table is a summary of hourly weather conditions for the past 24 hours.
Please note that these observations might not always be representative of weather conditions over their associated marine area.

Date / Time
(ADT)
Wind(knots) Wave height(m) Wave period(s) Pressure(kPa) Air tempC) Water tempC)
25 July 2024
17:00 SW 8 gusts 9 0.31 3.4 101.6 19 18
16:00 SW 8 gusts 9 0.33 3.4 101.7 19 18
15:00 SSW 6 gusts 11 0.28 4.0 101.8 20 19
14:00 SSW 8 gusts 11 0.29 3.8 101.8 19 18
13:00 S 9 gusts 11 0.30 4.2 101.9 19 18
12:00 SSE 9 gusts 11 0.31 4.9 101.9 19 18
11:00 SSE 8 gusts 9 0.30 5.0 102.0 18 18
10:00 S 5 gusts 5 0.35 5.1 102.0 18 18
9:00 SSE 4 gusts 5 0.35 5.1 102.1 18 18
8:00 S 3 gusts 3 0.37 5.2 102.1 17 18
7:00 SSW 1 gusts 2 0.33 5.2 102.1 18 18
6:00 SSE 2 gusts 3 0.32 5.4 102.2 17 18
5:00 NW 4 gusts 5 0.32 5.6 102.2 18 17
4:00 W 4 gusts 4 0.29 5.4 102.2 18 18
3:00 WSW 5 gusts 7 0.35 5.6 102.3 18 17
2:00 WSW 5 gusts 5 0.38 5.7 102.3 18 18
1:00 W 3 gusts 4 0.40 5.6 102.3 18 18
0:00 W 4 gusts 5 0.34 4.9 102.3 18 18
24 July 2024
23:00 SW 5 gusts 5 0.35 5.0 102.3 18 18
22:00 SW 6 gusts 8 0.34 5.1 102.4 18 17
21:00 SSW 8 gusts 9 0.29 4.6 102.4 19 18
20:00 SW 6 gusts 7 0.29 4.5 102.3 19 18
19:00 SSE 5 gusts 6 0.23 4.3 102.3 19 18
18:00 SE 6 gusts 7 0.25 4.1 102.3 19 18
17:00 SSE 6 gusts 8 0.21 4.0 102.3 19 18

Zoom-in to make a selection

Map of Atlantic - Newfoundland marine weather areas Banquereau - 44139 East Chedabucto Bay – 44488 West Chedabucto Bay – 44489 Blanc-Sablon Airport Cap Whittle Chevery Natashquan Airport Heath Point Îles de la Madeleine Airport Miscou Island Eskasoni (First Nations) Grand Étang Ingonish Beach North Mountain St.Paul Island J.A. Douglas McCurdy Sydney Airport Charlottetown Airport East Point North Cape Argentia Berry Hill Bonavista Burgeo Cape Race Corner Brook Daniel's Harbour Englee Ferolle Point La Scie Port aux Basques Sagona Island St. Anthony Airport St. John's Int'l Airport St. Lawrence Stephenville Airport Twillingate Winterland Branch Hill Wreckhouse Grates Cove Pool's Island Marticot Island Long Pond Cartwright Airport Mary's Harbour
Legend:
buoy Buoy
land station Land Station

Atlantic - Newfoundland Area

Another Region

Features

New Predicting and Alerting Coastal Flooding Program

Find out about coastal flooding coverage, forecasts and warnings in your region

Date modified: